Burns Pinion Ridge Reserve, California Weather observations

Data are for 10 minute period ending at time listed.
 Day   Time   Solar   Ave.   Ave.  Ave.  Vector  Max.   Baro.   Total    
  of    of     Rad.   Air    Rel.  Wind   Wind   Wind  Press.  Precip.   
Year   Day            Temp.  Hum.  Speed  Dir.   Gust                    
2014   (PST)  Kw/m2    F      %     mph   deg.    mph    mb.     in.     
-------------------------------------------------------------------------
 294   15:10   0.34   76.0    15    4.7   172    12.2   872.5    0.00 
 294   15:20   0.35   75.7    16    6.7   152    11.7   872.5    0.00 
 294   15:30   0.24   74.5    18    6.3   152    13.3   872.4    0.00 
 294   15:40   0.15   74.4    18    4.7   151     9.1   872.5    0.00 
 294   15:50   0.23   74.7    16    5.3   150     9.4   872.5    0.00 
 294   16:00   0.11   73.7    15    6.1   145    11.1   872.5    0.00 
 294   16:10   0.11   72.6    16    5.0   155    10.0   872.6    0.00 
 294   16:20   0.09   72.7    16    3.8   168     9.2   872.6    0.00 
 294   16:30   0.08   72.4    17    2.5   192     6.9   872.6    0.00 
 294   16:40   0.03   70.9    19    3.3   160     7.3   872.6    0.00 
 294   16:50   0.02   69.8    20    4.1   156     6.4   872.6    0.00 
 294   17:00   0.01   68.9    21    4.4   155     7.6   872.5    0.00 
 294   17:10   0.00   68.2    23    4.2   168     7.0   872.4    0.00 
 294   17:20   0.00   67.3    24    2.1   184     4.6   872.4    0.00 
 294   17:30   0.00   66.3    25    2.3   196     5.7   872.4    0.00 
 294   17:40   0.00   66.6    26    2.8   208     5.6   872.4    0.00 
 294   17:50   0.00   66.8    27    4.0   217     7.3   872.4    0.00 
 294   18:00   0.00   66.8    27    4.6   215     6.9   872.5    0.00 
 294   18:10   0.00   66.7    26    5.1   212     7.2   872.5    0.00 
 294   18:20   0.00   66.4    26    4.8   207     6.6   872.6    0.00 
 294   18:30   0.00   65.8    26    4.0   214     6.2   872.6    0.00 
 294   18:40   0.00   65.1    26    3.5   194     5.3   872.7    0.00 
 294   18:50   0.00   63.4    28    3.5   173     4.8   872.7    0.00 
 294   19:00   0.00   62.5    28    2.8   188     4.3   872.7    0.00 
 294   19:10   0.00   62.3    28    3.3   205     4.2   872.7    0.00 
 294   19:20   0.00   60.7    29    1.0   244     2.7   872.7    0.00 
 294   19:30   0.00   57.8    31    1.0   347     3.2   872.7    0.00 
 294   19:40   0.00   56.6    33    0.6   271     1.7   872.9    0.00 
 294   19:50   0.00   56.0    33    0.0   245     1.2   873.0    0.00 
 294   20:00   0.00   55.3    35    0.0     0     0.0   873.1    0.00 
 294   20:10   0.00   54.8    35    0.4   288     1.8   873.3    0.00 
 294   20:20   0.00   54.7    36    0.8   340     2.6   873.4    0.00 
 294   20:30   0.00   54.2    37    0.7   332     1.9   873.6    0.00 
 294   20:40   0.00   54.7    36    0.0     0     0.0   873.7    0.00 
 294   20:50   0.00   54.4    36    0.0     0     0.0   873.7    0.00 
 294   21:00   0.00   54.0    37    0.0     0     0.0   873.8    0.00 
 294   21:10   0.00   53.3    38    0.0     0     0.0   873.8    0.00 
 294   21:20   0.00   52.9    39    0.0     0     0.0   873.8    0.00 
 294   21:30   0.00   52.7    40    0.7   129     2.0   873.8    0.00 
 294   21:40   0.00   53.3    36    1.1   105     3.4   873.8    0.00 
 294   21:50   0.00   53.3    34    0.5   318     2.3   873.9    0.00 
 294   22:00   0.00   52.5    36    0.4   337     1.2   873.9    0.00 
 294   22:10   0.00   52.3    37    0.0     0     0.0   873.8    0.00 
 294   22:20   0.00   52.3    36    0.3   113     1.4   873.8    0.00 
 294   22:30   0.00   51.6    35    1.4   337     2.5   874.0    0.00 
 294   22:40   0.00   51.5    37    0.3   296     1.4   874.1    0.00 
 294   22:50   0.00   52.1    38    0.0     0     0.0   874.1    0.00 
 294   23:00   0.00   52.0    40    0.1   316     1.0   874.1    0.00 
 294   23:10   0.00   52.0    40    0.0   330     0.7   874.2    0.00 
 294   23:20   0.00   52.2    40    0.0     0     0.0   874.2    0.00 
 294   23:30   0.00   51.4    40    1.2   321     2.7   874.1    0.00 
 294   23:40   0.00   50.7    40    0.7   313     2.2   874.1    0.00 
 294   23:50   0.00   50.4    41    0.0     0     0.0   874.1    0.00 
 295    0:00   0.00   50.5    40    1.4   100     6.5   874.0    0.00 
 295    0:10   0.00   53.5    34    2.0    92     5.9   874.0    0.00 
 295    0:20   0.00   53.1    34    0.9    67     4.3   874.0    0.00 
 295    0:30   0.00   52.1    35    0.2   167     1.5   874.0    0.00 
 295    0:40   0.00   51.6    34    0.9   351     4.2   874.1    0.00 
 295    0:50   0.00   52.1    35    1.2   321     3.7   874.2    0.00 
 295    1:00   0.00   50.8    37    0.0     0     0.0   874.1    0.00 
 295    1:10   0.00   49.5    38    0.4   256     1.1   873.9    0.00 
 295    1:20   0.00   48.7    40    1.4   302     3.4   874.0    0.00 
 295    1:30   0.00   48.7    41    0.6   346     2.5   874.2    0.00 
 295    1:40   0.00   49.0    40    0.0     0     0.0   874.2    0.00 
 295    1:50   0.00   49.1    40    0.0     0     0.0   874.1    0.00 
 295    2:00   0.00   48.2    41    0.0   143     0.8   873.9    0.00 
 295    2:10   0.00   47.8    42    1.8   329     3.2   873.9    0.00 
 295    2:20   0.00   49.0    41    0.2   319     1.2   873.9    0.00 
 295    2:30   0.00   48.4    42    0.0     0     0.0   873.9    0.00 
 295    2:40   0.00   48.3    41    0.4   303     2.5   873.9    0.00 
 295    2:50   0.00   48.5    40    0.8   338     2.5   873.9    0.00 
 295    3:00   0.00   49.1    39    0.0     0     0.0   873.9    0.00 
 295    3:10   0.00   48.2    40    0.7   308     2.2   873.9    0.00 
 295    3:20   0.00   47.9    40    1.0   319     2.8   874.1    0.00 
 295    3:30   0.00   47.7    40    0.1   320     0.9   874.2    0.00 
 295    3:40   0.00   47.8    40    0.1   320     1.0   874.3    0.00 
 295    3:50   0.00   47.8    41    0.8   354     2.3   874.5    0.00 
 295    4:00   0.00   48.0    41    0.1   337     1.3   874.6    0.00 
 295    4:10   0.00   47.7    41    0.7   347     2.9   874.6    0.00 
 295    4:20   0.00   47.5    41    0.1   330     1.1   874.6    0.00 
 295    4:30   0.00   47.8    40    0.0     0     0.0   874.7    0.00 
 295    4:40   0.00   47.9    40    0.0     0     0.0   874.8    0.00 
 295    4:50   0.00   48.0    40    1.2     7     2.7   874.8    0.00 
 295    5:00   0.00   48.0    42    0.1   343     1.2   874.9    0.00 
 295    5:10   0.00   47.7    44    0.0     0     0.0   875.0    0.00 
 295    5:20   0.00   47.2    45    0.0     0     0.0   875.0    0.00 
 295    5:30   0.00   46.5    46    0.0     0     0.0   875.0    0.00 
 295    5:40   0.00   46.7    46    0.6   348     2.9   875.1    0.00 
 295    5:50   0.00   46.1    46    1.8   339     2.7   875.2    0.00 
 295    6:00   0.00   46.7    41    0.2   337     1.6   875.4    0.00 
 295    6:10   0.01   46.9    38    0.3   342     1.5   875.5    0.00 
 295    6:20   0.01   46.8    37    0.0     0     0.0   875.7    0.00 
 295    6:30   0.01   47.2    36    0.0     0     0.0   875.8    0.00 
 295    6:40   0.01   48.7    34    0.0     0     0.0   875.9    0.00 
 295    6:50   0.09   51.6    31    0.0     0     0.0   876.0    0.00 
 295    7:00   0.15   59.8    24    0.0     0     0.0   876.3    0.00 
 295    7:10   0.18   65.2    19    0.0     0     0.0   876.4    0.00 
 295    7:20   0.22   68.8    17    0.0     0     0.0   876.5    0.00 
 295    7:30   0.26   72.2    16    0.2    46     1.0   876.5    0.00 
 295    7:40   0.29   71.3    18    1.4    30     3.6   876.5    0.00 
 295    7:50   0.32   70.0    20    1.7    66     3.9   876.5    0.00 
 295    8:00   0.36   69.7    21    2.6    78     5.8   876.6    0.00 
 295    8:10   0.39   69.0    22    3.3    64     6.1   876.8    0.00 
 295    8:20   0.42   68.8    22    3.1    72     5.4   877.0    0.00 
 295    8:30   0.45   68.6    22    3.9    56     6.4   877.2    0.00 
 295    8:40   0.47   69.2    21    4.0    51     6.6   877.4    0.00 
 295    8:50   0.51   69.7    20    4.1    45     7.1   877.7    0.00 
 295    9:00   0.54   69.7    20    3.6    41     7.0   877.7    0.00 
 295    9:10   0.57   70.6    20    3.3    53     6.7   877.6    0.00 
 295    9:20   0.58   70.7    20    3.4    54     6.6   877.7    0.00 
 295    9:30   0.62   71.3    19    3.3    43     6.9   877.8    0.00 
 295    9:40   0.63   71.9    18    3.0    25     6.4   877.8    0.00 
 295    9:50   0.65   72.1    18    3.4    49     8.8   878.0    0.00 
 295   10:00   0.65   73.3    17    3.3    50     8.1   878.0    0.00 
 295   10:10   0.68   72.7    18    3.0    71     5.9   878.0    0.00 
 295   10:20   0.71   73.2    17    2.5    27     7.7   878.0    0.00 
 295   10:30   0.72   73.9    16    3.4    63     7.2   878.0    0.00 
 295   10:40   0.72   74.0    16    3.8    44     7.5   877.9    0.00 
 295   10:50   0.74   73.9    16    2.5    61     7.2   877.9    0.00 
 295   11:00   0.76   75.4    15    1.7   142     5.2   877.8    0.00 
 295   11:10   0.76   75.3    15    2.9    77     9.3   877.7    0.00 
 295   11:20   0.77   75.5    15    3.7    67     8.8   877.7    0.00 
 295   11:30   0.71   75.6    15    4.2    54     8.3   877.6    0.00 
 295   11:40   0.74   75.7    14    2.9    36     6.1   877.4    0.00 
 295   11:50   0.73   76.4    14    3.8   113     7.6   877.2    0.00 
 295   12:00   0.72   76.2    14    3.0    67     8.3   877.1    0.00 
 295   12:10   0.74   75.5    14    3.8    82     7.7   877.0    0.00 
 295   12:20   0.74   76.1    14    4.3    58     8.3   877.0    0.00 
 295   12:30   0.72   77.0    14    4.4    82     8.2   877.0    0.00 
 295   12:40   0.72   76.3    14    2.8    52     7.8   876.9    0.00 
 295   12:50   0.70   77.8    14    3.3    52     8.9   876.9    0.00 
 295   13:00   0.68   77.5    14    3.6    71     8.5   876.8    0.00 
 295   13:10   0.61   76.9    14    4.8    78    10.3   876.8    0.00 
 295   13:20   0.62   77.3    14    3.8    54     6.6   876.7    0.00 
 295   13:30   0.64   77.6    14    3.3   149     9.0   876.8    0.00 
 295   13:40   0.60   78.2    14    3.1   104     7.7   876.7    0.00 
 295   13:50   0.57   77.7    14    4.4   116    10.9   876.7    0.00 
 295   14:00   0.53   77.9    14    5.5   128    11.9   876.7    0.00 
 295   14:10   0.44   77.5    14    5.1    82     9.1   876.7    0.00 
 295   14:20   0.45   77.6    14    3.8   131     6.9   876.8    0.00 
 295   14:30   0.43   79.2    14    2.6   104     6.0   876.8    0.00 
 295   14:40   0.42   77.7    15    3.0    45     7.2   876.8    0.00 
 295   14:50   0.40   78.2    15    2.5   130     6.6   876.8    0.00 
 295   15:00   0.39   78.8    16    3.7   205     8.0   876.8    0.00 

Return to Burns Pinion Ridge Reserve graphs page.


Western Regional Climate Center,wrcc@dri.edu